Time;durP1;ratioP1;P1;durP2;ratioP2;P2;SDS_P1;SDS_P2;PMS_P1;PMS_P2;Temp;Humidity;BMP_temperature;BMP_pressure;BME280_temperature;BME280_humidity;BME280_pressure;Samples;Min_cycle;Max_cycle;Signal;HPM_P1;HPM_P2
2023/05/19 00:01:58;;;;;;;0.00;0.00;;;;;;;12.59;68.54;101462.38;6249380;22;20368;-74
2023/05/19 00:04:24;;;;;;;0.00;0.00;;;;;;;12.45;68.27;101439.13;6271508;22;20029;-74
2023/05/19 00:06:52;;;;;;;0.00;0.00;;;;;;;12.49;68.64;101452.06;6120744;23;20332;-73
2023/05/19 00:09:18;;;;;;;0.00;0.00;;;;;;;12.46;69.13;101451.75;6147972;23;20010;-73
2023/05/19 00:11:44;;;;;;;0.00;0.00;;;;;;;12.44;69.99;101459.41;6246794;22;20036;-74
2023/05/19 00:14:09;;;;;;;0.00;0.00;;;;;;;12.39;69.82;101458.25;6273061;22;20036;-73
2023/05/19 00:16:36;;;;;;;0.00;0.00;;;;;;;12.32;70.33;101463.06;6166413;23;21033;-73
2023/05/19 00:19:04;;;;;;;0.00;0.00;;;;;;;12.27;71.13;101459.44;6145587;23;20009;-73
2023/05/19 00:21:30;;;;;;;0.00;0.00;;;;;;;12.22;71.20;101458.28;6142206;23;20697;-72
2023/05/19 00:23:55;;;;;;;0.00;0.00;;;;;;;12.16;72.20;101458.47;6120258;23;20020;-74
2023/05/19 00:26:21;;;;;;;0.00;0.00;;;;;;;12.05;72.43;101452.00;6168131;23;20040;-73
2023/05/19 00:28:48;;;;;;;0.00;0.00;;;;;;;12.02;72.43;101447.84;6270107;22;20538;-73
2023/05/19 00:31:13;;;;;;;0.00;0.00;;;;;;;11.98;72.92;101451.34;6274198;22;20009;-74
2023/05/19 00:33:39;;;;;;;0.00;0.00;;;;;;;11.92;72.69;101453.13;6244480;22;20100;-74
2023/05/19 00:36:05;;;;;;;0.00;0.00;;;;;;;11.88;73.20;101450.09;6143146;23;20013;-76
2023/05/19 00:38:31;;;;;;;0.00;0.00;;;;;;;11.93;73.48;101460.31;6120485;23;20021;-75
2023/05/19 00:40:57;;;;;;;0.00;0.00;;;;;;;11.92;73.15;101455.88;6137305;23;20335;-76
2023/05/19 00:43:23;;;;;;;0.00;0.00;;;;;;;11.87;74.07;101453.03;6145119;23;20014;-75
2023/05/19 00:45:49;;;;;;;0.00;0.00;;;;;;;11.86;74.09;101443.19;6138932;23;20062;-75
2023/05/19 00:48:14;;;;;;;0.00;0.00;;;;;;;11.88;74.63;101454.72;6246879;22;20435;-76
2023/05/19 00:50:40;;;;;;;0.00;0.00;;;;;;;11.85;74.48;101455.22;6248499;22;20111;-75
2023/05/19 00:53:06;;;;;;;0.00;0.00;;;;;;;11.81;74.68;101456.78;6245025;22;20009;-75
2023/05/19 00:55:33;;;;;;;0.00;0.00;;;;;;;11.81;74.56;101456.78;6145729;23;20471;-76
2023/05/19 00:57:59;;;;;;;0.00;0.00;;;;;;;11.79;75.18;101451.56;6243522;22;20119;-76
2023/05/19 01:00:24;;;;;;;0.00;0.00;;;;;;;11.79;75.21;101454.28;6249531;22;20013;-75
2023/05/19 01:02:50;;;;;;;0.00;0.00;;;;;;;11.85;75.35;101456.03;6115538;23;20013;-74
2023/05/19 01:05:16;;;;;;;0.00;0.00;;;;;;;11.86;75.27;101456.88;6249060;22;20078;-76
2023/05/19 01:07:42;;;;;;;0.00;0.00;;;;;;;11.91;75.44;101450.66;6145070;23;20001;-76
2023/05/19 01:10:08;;;;;;;0.00;0.00;;;;;;;11.90;75.40;101449.81;6165022;23;20014;-75
2023/05/19 01:12:34;;;;;;;0.00;0.00;;;;;;;11.89;75.17;101445.41;6143545;23;20519;-75
2023/05/19 01:15:02;;;;;;;0.00;0.00;;;;;;;11.89;75.00;101442.69;6139316;23;20444;-75
2023/05/19 01:17:33;;;;;;;0.00;0.00;;;;;;;11.92;75.72;101449.56;6247246;22;20611;-76
2023/05/19 01:20:00;;;;;;;0.00;0.00;;;;;;;11.89;76.30;101453.63;6140948;23;20009;-76
2023/05/19 01:22:53;;;;;;;0.00;0.00;;;;;;;11.83;75.80;101452.72;6143012;23;20009;-75
2023/05/19 01:25:46;;;;;;;0.00;0.00;;;;;;;11.78;76.35;101457.28;6140969;23;20009;-75
2023/05/19 01:28:24;;;;;;;0.00;0.00;;;;;;;11.77;76.87;101450.13;6141123;23;20013;-76
2023/05/19 01:30:54;;;;;;;0.00;0.00;;;;;;;11.68;77.06;101442.34;6144637;23;20957;-75
2023/05/19 01:33:24;;;;;;;0.00;0.00;;;;;;;11.73;77.36;101449.00;6141504;23;20443;-75
2023/05/19 01:35:51;;;;;;;0.00;0.00;;;;;;;11.72;77.18;101444.59;6146632;23;20016;-74
2023/05/19 01:38:19;;;;;;;0.00;0.00;;;;;;;11.71;77.01;101443.75;6115690;23;20109;-73
2023/05/19 01:40:46;;;;;;;0.00;0.00;;;;;;;11.69;77.52;101444.00;6239829;22;20021;-74
2023/05/19 01:43:15;;;;;;;0.00;0.00;;;;;;;11.73;77.63;101446.25;6146242;23;20149;-74
2023/05/19 01:45:41;;;;;;;0.10;0.10;;;;;;;11.76;77.66;101453.97;6143954;23;20008;-74
2023/05/19 01:48:06;;;;;;;0.00;0.00;;;;;;;11.77;77.60;101441.91;6120720;23;20005;-73
2023/05/19 01:50:33;;;;;;;0.00;0.00;;;;;;;11.80;77.99;101444.19;6251090;22;20340;-74
2023/05/19 01:52:59;;;;;;;0.00;0.00;;;;;;;11.87;77.89;101451.16;6144498;23;20009;-72
2023/05/19 01:55:25;;;;;;;0.00;0.00;;;;;;;11.89;77.68;101450.91;6147023;23;20416;-72
2023/05/19 01:58:18;;;;;;;0.00;0.00;;;;;;;11.95;77.57;101449.91;6274903;22;20067;-75
2023/05/19 02:01:10;;;;;;;0.00;0.00;;;;;;;12.00;77.61;101444.53;6146727;23;20005;-74
2023/05/19 02:03:57;;;;;;;0.08;0.08;;;;;;;12.06;77.38;101448.16;6146413;23;20020;-74
2023/05/19 02:06:42;;;;;;;0.00;0.00;;;;;;;12.03;77.85;101438.53;6141080;23;20187;-74
2023/05/19 02:09:15;;;;;;;0.00;0.00;;;;;;;12.03;77.61;101443.19;6145941;23;20012;-74
2023/05/19 02:11:50;;;;;;;0.03;0.03;;;;;;;12.00;78.13;101443.69;6140607;23;20020;-75
2023/05/19 02:14:39;;;;;;;0.00;0.00;;;;;;;11.89;78.40;101426.22;6146175;23;20005;-75
2023/05/19 02:17:05;;;;;;;0.00;0.00;;;;;;;11.97;78.62;101444.19;6144552;23;20001;-74
2023/05/19 02:19:34;;;;;;;0.00;0.00;;;;;;;11.97;78.54;101433.22;6145093;23;20361;-73
2023/05/19 02:21:59;;;;;;;0.00;0.00;;;;;;;11.94;78.52;101417.28;6143382;23;20044;-74
2023/05/19 02:24:25;;;;;;;0.08;0.08;;;;;;;11.97;78.46;101425.84;6144171;23;20332;-73
2023/05/19 02:26:52;;;;;;;0.00;0.00;;;;;;;11.94;78.55;101423.59;6141079;23;20107;-73
2023/05/19 02:29:18;;;;;;;0.00;0.00;;;;;;;11.92;78.63;101436.69;6275436;22;20088;-74
2023/05/19 02:31:44;;;;;;;0.00;0.00;;;;;;;11.85;78.71;101430.53;6245138;22;20009;-75
2023/05/19 02:34:09;;;;;;;0.00;0.00;;;;;;;11.84;79.16;101426.13;6249495;22;20001;-74
2023/05/19 02:36:36;;;;;;;0.00;0.00;;;;;;;11.83;79.15;101416.28;6145983;23;20017;-75
2023/05/19 02:39:03;;;;;;;0.00;0.00;;;;;;;11.82;79.04;101425.56;6139657;23;20443;-74
2023/05/19 02:41:29;;;;;;;0.00;0.00;;;;;;;11.82;79.40;101436.53;6145443;23;20012;-72
2023/05/19 02:43:55;;;;;;;0.00;0.00;;;;;;;11.88;79.35;101441.00;6144998;23;20001;-75
2023/05/19 02:46:20;;;;;;;0.00;0.00;;;;;;;11.88;79.28;101436.38;6140712;23;20075;-75
2023/05/19 02:48:45;;;;;;;0.00;0.00;;;;;;;11.87;79.53;101423.75;6144399;23;20006;-75
2023/05/19 02:51:11;;;;;;;0.00;0.00;;;;;;;11.96;79.14;101435.16;6246033;22;20088;-75
2023/05/19 02:53:36;;;;;;;0.00;0.00;;;;;;;11.97;79.33;101439.56;6144239;23;20005;-76
2023/05/19 02:56:02;;;;;;;0.00;0.00;;;;;;;11.97;79.75;101434.06;6245230;22;20006;-75
2023/05/19 02:58:27;;;;;;;0.00;0.00;;;;;;;12.00;80.14;101433.56;6247880;22;20018;-74
2023/05/19 03:00:54;;;;;;;0.00;0.00;;;;;;;12.02;80.34;101439.63;6121222;22;20598;-74
2023/05/19 03:03:20;;;;;;;0.00;0.00;;;;;;;11.98;79.47;101429.41;6144512;23;20016;-73
2023/05/19 03:05:46;;;;;;;0.00;0.00;;;;;;;12.04;79.77;101442.94;6118977;22;20013;-74
2023/05/19 03:08:11;;;;;;;0.00;0.00;;;;;;;12.11;80.03;101447.44;6243234;22;20020;-73
2023/05/19 03:10:37;;;;;;;0.00;0.00;;;;;;;12.11;79.76;101441.94;6272583;22;20013;-73
2023/05/19 03:13:02;;;;;;;0.00;0.00;;;;;;;12.12;79.87;101438.09;6219795;23;20115;-73
2023/05/19 03:15:28;;;;;;;0.00;0.00;;;;;;;12.07;80.26;101432.56;6247518;22;20693;-74
2023/05/19 03:17:53;;;;;;;0.00;0.00;;;;;;;12.03;80.05;101432.22;6145226;22;20013;-75
2023/05/19 03:20:18;;;;;;;0.00;0.00;;;;;;;11.99;79.91;101431.91;6138977;23;20428;-74
2023/05/19 03:22:44;;;;;;;0.00;0.00;;;;;;;11.95;80.05;101425.25;6120213;22;20644;-74
2023/05/19 03:25:10;;;;;;;0.00;0.00;;;;;;;11.91;80.24;101424.06;6244191;22;20036;-75
2023/05/19 03:27:37;;;;;;;0.00;0.00;;;;;;;11.89;80.13;101431.72;6248366;22;20339;-73
2023/05/19 03:30:03;;;;;;;0.00;0.00;;;;;;;11.85;80.11;101419.59;6268435;22;20066;-74
2023/05/19 03:32:31;;;;;;;0.00;0.00;;;;;;;11.87;80.20;101428.38;6148210;23;19994;-74
2023/05/19 03:34:56;;;;;;;0.00;0.00;;;;;;;11.86;80.39;101415.78;6271413;22;20013;-74
2023/05/19 03:37:21;;;;;;;0.00;0.00;;;;;;;11.90;80.15;101421.56;6244447;22;20009;-74
2023/05/19 03:39:47;;;;;;;0.00;0.00;;;;;;;11.84;80.42;101424.25;6248171;22;20452;-74
2023/05/19 03:42:12;;;;;;;0.00;0.00;;;;;;;11.85;80.32;101441.50;6249402;22;20031;-74
2023/05/19 03:44:38;;;;;;;0.00;0.00;;;;;;;11.90;80.69;101444.34;6273473;22;20009;-74
2023/05/19 03:47:04;;;;;;;0.00;0.00;;;;;;;11.87;80.69;101439.34;6141923;23;20008;-74
2023/05/19 03:49:29;;;;;;;0.00;0.00;;;;;;;11.90;80.65;101427.06;6245377;22;20755;-75
2023/05/19 03:51:55;;;;;;;0.00;0.00;;;;;;;11.87;80.23;101422.88;6139667;23;20009;-75
2023/05/19 03:54:21;;;;;;;0.00;0.00;;;;;;;11.85;80.29;101428.63;6223641;23;20020;-74
2023/05/19 03:56:47;;;;;;;0.00;0.00;;;;;;;11.91;80.71;101429.53;6139631;23;20072;-74
2023/05/19 03:59:12;;;;;;;0.00;0.00;;;;;;;11.90;80.91;101418.81;6222830;23;20497;-76
2023/05/19 04:01:37;;;;;;;0.00;0.00;;;;;;;11.89;80.67;101409.78;6145249;23;20006;-75
2023/05/19 04:04:03;;;;;;;0.00;0.00;;;;;;;11.89;81.03;101420.75;6241225;22;20005;-74
2023/05/19 04:06:29;;;;;;;0.00;0.00;;;;;;;11.88;80.58;101416.34;6144118;23;20002;-73
2023/05/19 04:08:55;;;;;;;0.00;0.00;;;;;;;11.86;80.72;101415.78;6242257;22;20137;-74
2023/05/19 04:11:20;;;;;;;0.00;0.00;;;;;;;11.80;80.46;101408.56;6145315;23;20010;-73
2023/05/19 04:13:46;;;;;;;0.00;0.00;;;;;;;11.79;80.80;101410.44;6115846;23;20374;-73
2023/05/19 04:16:11;;;;;;;0.00;0.00;;;;;;;11.80;81.04;101412.13;6144057;23;20463;-74
2023/05/19 04:18:37;;;;;;;0.00;0.00;;;;;;;11.78;80.58;101418.91;6119593;23;20018;-73
2023/05/19 04:21:02;;;;;;;0.00;0.00;;;;;;;11.77;80.69;101417.25;6245607;22;20051;-73
2023/05/19 04:23:28;;;;;;;0.00;0.00;;;;;;;11.74;80.88;101418.59;6145435;23;20063;-73
2023/05/19 04:25:55;;;;;;;0.00;0.00;;;;;;;11.67;81.01;101418.75;6244835;22;20059;-74
2023/05/19 04:28:22;;;;;;;0.00;0.00;;;;;;;11.65;81.42;101423.66;6120951;22;20013;-73
2023/05/19 04:30:51;;;;;;;0.00;0.00;;;;;;;11.49;81.13;101405.28;6142665;23;20498;-75
2023/05/19 04:36:10;;;;;;;0.00;0.00;;;;;;;11.44;81.18;101394.28;6133620;23;20085;-75
2023/05/19 04:38:36;;;;;;;0.00;0.00;;;;;;;11.50;81.72;101407.78;6147137;23;20052;-73
2023/05/19 04:41:02;;;;;;;0.00;0.00;;;;;;;11.50;81.82;101407.78;6144512;23;20009;-73
2023/05/19 04:43:28;;;;;;;0.00;0.00;;;;;;;11.54;81.35;101416.34;6223234;23;20082;-74
2023/05/19 04:45:54;;;;;;;0.00;0.00;;;;;;;11.58;81.62;101420.25;6146265;23;20321;-74
2023/05/19 04:48:20;;;;;;;0.00;0.00;;;;;;;11.69;81.95;101418.50;6144862;23;20024;-74
2023/05/19 04:50:47;;;;;;;0.00;0.00;;;;;;;11.80;80.93;101422.25;6147070;23;20115;-73
2023/05/19 04:53:14;;;;;;;0.00;0.00;;;;;;;11.88;81.18;101419.09;6144542;23;20005;-75
2023/05/19 04:55:39;;;;;;;0.00;0.00;;;;;;;11.95;81.03;101419.78;6146390;23;20013;-73
2023/05/19 04:58:05;;;;;;;0.00;0.00;;;;;;;12.03;80.81;101419.34;6247536;22;20014;-74
2023/05/19 05:00:31;;;;;;;0.00;0.00;;;;;;;12.13;80.16;101420.56;6144839;23;20005;-73
2023/05/19 05:02:57;;;;;;;0.00;0.00;;;;;;;12.17;80.72;101427.22;6145712;23;20353;-74
2023/05/19 05:05:23;;;;;;;0.00;0.00;;;;;;;12.17;80.70;101425.28;6116412;23;20010;-73
2023/05/19 05:07:49;;;;;;;0.00;0.00;;;;;;;12.18;80.67;101429.72;6120475;22;20014;-72
2023/05/19 05:10:14;;;;;;;0.00;0.00;;;;;;;12.28;79.98;101434.53;6243188;22;20012;-75
2023/05/19 05:12:40;;;;;;;0.00;0.00;;;;;;;12.32;80.23;101423.84;6143339;23;20010;-74
2023/05/19 05:15:06;;;;;;;0.00;0.00;;;;;;;12.37;80.11;101443.13;6219489;23;20022;-74
2023/05/19 05:17:34;;;;;;;0.00;0.00;;;;;;;12.46;80.19;101454.50;6221742;23;20017;-73
2023/05/19 05:20:00;;;;;;;0.00;0.00;;;;;;;12.49;79.87;101454.81;6120603;23;20067;-73
2023/05/19 05:22:26;;;;;;;0.00;0.00;;;;;;;12.50;80.09;101464.72;6139962;23;20009;-75
2023/05/19 05:24:51;;;;;;;0.00;0.00;;;;;;;12.51;79.88;101454.56;6145141;23;19997;-76
2023/05/19 05:27:17;;;;;;;0.00;0.00;;;;;;;12.58;79.53;101460.69;6270607;22;20036;-73
2023/05/19 05:29:42;;;;;;;0.00;0.00;;;;;;;12.60;79.38;101446.72;6147096;23;20089;-74
2023/05/19 05:32:08;;;;;;;0.00;0.00;;;;;;;12.73;79.08;101447.19;6268386;22;20016;-74
2023/05/19 05:34:34;;;;;;;0.00;0.00;;;;;;;12.83;78.89;101451.13;6249168;22;20012;-74
2023/05/19 05:37:00;;;;;;;0.00;0.00;;;;;;;12.90;79.06;101440.78;6147243;23;20016;-74
2023/05/19 05:39:26;;;;;;;0.00;0.00;;;;;;;12.96;78.93;101434.25;6140311;23;20022;-75
2023/05/19 05:41:52;;;;;;;0.00;0.00;;;;;;;12.93;78.53;101423.78;6273671;22;20337;-74
2023/05/19 05:44:17;;;;;;;0.00;0.00;;;;;;;12.98;77.82;101431.25;6276552;22;20002;-74
2023/05/19 05:46:43;;;;;;;0.00;0.00;;;;;;;13.02;77.74;101419.50;6247816;22;20130;-73
2023/05/19 05:49:11;;;;;;;0.00;0.00;;;;;;;13.17;77.41;101424.34;6169481;23;20092;-74
2023/05/19 05:51:36;;;;;;;0.00;0.00;;;;;;;13.23;77.05;101415.06;6118099;23;20093;-74
2023/05/19 05:54:05;;;;;;;0.00;0.00;;;;;;;13.32;76.94;101415.41;6275393;22;20040;-75
2023/05/19 05:56:32;;;;;;;0.00;0.00;;;;;;;13.48;76.38;101429.31;6140765;23;20012;-74
2023/05/19 05:58:58;;;;;;;0.00;0.00;;;;;;;13.56;76.29;101420.59;6272301;22;20009;-75
2023/05/19 06:01:23;;;;;;;0.00;0.00;;;;;;;13.68;75.83;101435.00;6273986;22;20016;-74
2023/05/19 06:03:49;;;;;;;0.00;0.00;;;;;;;13.71;75.19;101434.47;6116532;22;20006;-74
2023/05/19 06:06:15;;;;;;;0.00;0.00;;;;;;;13.75;75.22;101432.00;6248218;22;20013;-75
2023/05/19 06:08:40;;;;;;;0.00;0.00;;;;;;;13.78;74.85;101435.09;6117812;23;20013;-75
2023/05/19 06:11:09;;;;;;;0.00;0.00;;;;;;;13.75;74.56;101430.09;6120146;23;20005;-73
2023/05/19 06:13:36;;;;;;;0.00;0.00;;;;;;;13.75;74.53;101419.09;6244722;22;20014;-74
2023/05/19 06:16:01;;;;;;;0.00;0.00;;;;;;;13.76;74.12;101415.25;6143321;23;20013;-74
2023/05/19 06:18:27;;;;;;;0.00;0.00;;;;;;;13.93;74.12;101414.25;6139741;23;20009;-73
2023/05/19 06:20:53;;;;;;;0.00;0.00;;;;;;;14.12;73.66;101412.75;6074190;23;20010;-74
2023/05/19 06:23:18;;;;;;;0.00;0.00;;;;;;;14.32;73.16;101416.72;6147137;23;20366;-73
2023/05/19 06:25:44;;;;;;;0.00;0.00;;;;;;;14.61;72.88;101432.81;6247458;22;20010;-75
2023/05/19 06:28:09;;;;;;;0.00;0.00;;;;;;;14.78;72.25;101438.97;6118208;22;20013;-74
2023/05/19 06:30:35;;;;;;;0.00;0.00;;;;;;;14.90;71.59;101435.16;6146283;23;20028;-75
2023/05/19 06:33:01;;;;;;;0.00;0.00;;;;;;;14.97;70.90;101433.00;6245265;22;20037;-74
2023/05/19 06:35:27;;;;;;;0.00;0.00;;;;;;;15.06;70.64;101420.34;6114607;23;20014;-74
2023/05/19 06:37:54;;;;;;;0.00;0.00;;;;;;;15.26;70.47;101424.22;6276222;22;20192;-75
2023/05/19 06:40:20;;;;;;;0.00;0.00;;;;;;;15.48;69.74;101438.59;6117587;23;20026;-74
2023/05/19 06:42:45;;;;;;;0.00;0.00;;;;;;;15.67;69.55;101447.13;6140872;23;20302;-72
2023/05/19 06:45:10;;;;;;;0.00;0.00;;;;;;;15.82;69.17;101453.78;6142764;23;20032;-75
2023/05/19 06:47:36;;;;;;;0.00;0.00;;;;;;;15.82;68.45;101449.09;6109880;22;20443;-74
2023/05/19 06:50:01;;;;;;;0.00;0.00;;;;;;;15.81;68.08;101452.97;6232473;22;20016;-74
2023/05/19 06:52:27;;;;;;;0.00;0.00;;;;;;;15.79;68.40;101454.34;6147358;23;20692;-77
2023/05/19 06:55:04;;;;;;;0.00;0.00;;;;;;;15.69;68.29;101444.09;6139437;23;20033;-83
2023/05/19 06:57:29;;;;;;;0.00;0.00;;;;;;;15.71;68.20;101447.41;6117432;23;20014;-78
2023/05/19 06:59:55;;;;;;;0.00;0.00;;;;;;;15.82;67.46;101462.88;6112840;23;20020;-80
2023/05/19 07:02:20;;;;;;;0.00;0.00;;;;;;;15.79;67.03;101449.66;6116060;22;20433;-80
2023/05/19 07:04:53;;;;;;;0.00;0.00;;;;;;;15.79;67.61;101449.66;6142265;23;19997;-79
2023/05/19 07:07:26;;;;;;;0.00;0.00;;;;;;;15.75;67.11;101437.47;6213533;23;20084;-79
2023/05/19 07:09:54;;;;;;;0.00;0.00;;;;;;;15.80;66.74;101451.31;6218902;23;20321;-82
2023/05/19 07:12:27;;;;;;;0.00;0.00;;;;;;;15.77;67.00;101457.34;6243335;22;20072;-82
2023/05/19 07:14:52;;;;;;;0.00;0.00;;;;;;;15.61;67.55;101436.38;6116961;22;20122;-81
2023/05/19 07:17:20;;;;;;;0.00;0.00;;;;;;;15.71;67.15;101445.50;6145626;23;20420;-77
2023/05/19 07:19:45;;;;;;;0.00;0.00;;;;;;;15.78;66.95;101430.59;6144459;23;20001;-79
2023/05/19 07:22:11;;;;;;;0.00;0.00;;;;;;;15.98;66.39;101435.31;6268886;22;20021;-80
2023/05/19 07:24:36;;;;;;;0.00;0.00;;;;;;;16.10;65.89;101426.72;6268825;22;20054;-79
2023/05/19 07:27:14;;;;;;;;;;;;;;;;;;;;;
2023/05/19 07:29:40;;;;;;;0.00;0.00;;;;;;;15.97;65.72;101430.88;6237538;22;20005;-81
2023/05/19 08:01:21;;;;;;;0.00;0.00;;;;;;;19.56;57.44;101455.84;6056126;23;20117;-80
2023/05/19 08:03:51;;;;;;;0.00;0.00;;;;;;;19.77;56.94;101451.63;6142793;23;20016;-82
2023/05/19 08:06:16;;;;;;;0.00;0.00;;;;;;;20.05;56.03;101452.53;6148410;23;20004;-81
2023/05/19 08:08:42;;;;;;;0.00;0.00;;;;;;;20.60;55.40;101461.22;6250088;22;20017;-80
2023/05/19 08:11:27;;;;;;;0.00;0.00;;;;;;;21.23;54.39;101467.94;6120589;23;20612;-80
2023/05/19 08:13:55;;;;;;;0.00;0.00;;;;;;;21.85;52.19;101466.53;6145604;23;20009;-79
2023/05/19 08:16:23;;;;;;;0.00;0.00;;;;;;;21.97;51.21;101453.63;6273202;22;20013;-79
2023/05/19 08:18:56;;;;;;;0.00;0.00;;;;;;;22.16;50.83;101460.97;6118033;23;20447;-79
2023/05/19 08:21:25;;;;;;;0.00;0.00;;;;;;;22.36;50.85;101459.63;6223302;23;20076;-82
2023/05/19 08:24:00;;;;;;;0.00;0.00;;;;;;;22.81;48.72;101476.16;6253010;22;20032;-82
2023/05/19 08:26:35;;;;;;;0.00;0.00;;;;;;;23.01;48.46;101473.91;6151382;23;20005;-84
2023/05/19 08:29:03;;;;;;;0.00;0.00;;;;;;;23.18;47.49;101448.03;6147678;23;20010;-81
2023/05/19 08:31:31;;;;;;;0.00;0.00;;;;;;;23.72;46.99;101456.06;6151077;23;20013;-84
2023/05/19 08:34:09;;;;;;;0.00;0.00;;;;;;;24.32;45.32;101478.63;6258069;22;20020;-84
2023/05/19 08:36:56;;;;;;;;;;;;;;;;;;;;;
2023/05/19 08:39:26;;;;;;;0.00;0.00;;;;;;;24.72;43.67;101473.53;6267068;22;20360;-84
2023/05/19 08:41:55;;;;;;;0.00;0.00;;;;;;;24.57;44.25;101457.28;6152414;23;20022;-84
2023/05/19 08:47:31;;;;;;;0.00;0.00;;;;;;;24.28;43.15;101463.66;6142649;23;20016;-84
2023/05/19 08:50:16;;;;;;;;;;;;;;;;;;;;;
2023/05/19 08:53:08;;;;;;;0.00;0.00;;;;;;;24.61;42.38;101482.66;6272494;22;20033;-83
2023/05/19 08:55:52;;;;;;;0.00;0.00;;;;;;;24.63;43.25;101483.94;6161032;23;20016;-82
2023/05/19 08:58:20;;;;;;;0.00;0.00;;;;;;;24.56;42.50;101464.03;6153460;23;20090;-79
2023/05/19 09:00:47;;;;;;;0.00;0.00;;;;;;;24.59;42.35;101466.22;6145285;23;20044;-80
2023/05/19 09:03:16;;;;;;;0.00;0.00;;;;;;;24.74;42.00;101465.63;6226928;23;20006;-80
2023/05/19 09:05:45;;;;;;;0.00;0.00;;;;;;;24.99;41.73;101459.41;6148406;23;20113;-80
2023/05/19 09:08:11;;;;;;;0.00;0.00;;;;;;;25.31;41.41;101465.44;6146164;23;20097;-80
2023/05/19 09:10:44;;;;;;;0.00;0.00;;;;;;;25.61;40.83;101469.78;6149387;23;20033;-80
2023/05/19 09:13:09;;;;;;;0.00;0.00;;;;;;;25.74;40.56;101462.25;6170340;23;20036;-78
2023/05/19 09:15:46;;;;;;;0.00;0.00;;;;;;;26.09;40.71;101477.91;6276112;22;20014;-79
2023/05/19 09:18:32;;;;;;;0.00;0.00;;;;;;;26.15;39.88;101437.25;6123687;23;20929;-80
2023/05/19 09:21:09;;;;;;;0.00;0.00;;;;;;;26.09;39.70;101421.84;6150121;23;20009;-79
2023/05/19 09:23:54;;;;;;;0.00;0.00;;;;;;;26.11;39.42;101437.16;6154348;23;20047;-78
2023/05/19 09:26:36;;;;;;;0.00;0.00;;;;;;;26.09;39.75;101438.66;6157752;23;20001;-82
2023/05/19 09:29:14;;;;;;;0.00;0.00;;;;;;;25.87;39.60;101437.06;6152489;23;20100;-81
2023/05/19 09:31:49;;;;;;;0.00;0.00;;;;;;;25.64;39.75;101431.03;6154123;22;20037;-82
2023/05/19 09:34:23;;;;;;;0.00;0.00;;;;;;;25.85;40.24;101448.63;6157146;23;20093;-81
2023/05/19 09:36:50;;;;;;;0.00;0.00;;;;;;;26.07;39.82;101429.78;6230896;23;20336;-82
2023/05/19 09:39:20;;;;;;;0.00;0.00;;;;;;;26.88;38.76;101423.63;6147293;23;20128;-82
2023/05/19 09:41:52;;;;;;;0.00;0.00;;;;;;;27.66;37.54;101425.13;6145334;23;20021;-82
2023/05/19 09:44:28;;;;;;;0.00;0.00;;;;;;;28.16;36.27;101448.16;6147991;23;20081;-84
2023/05/19 09:46:56;;;;;;;0.00;0.00;;;;;;;28.11;36.27;101439.16;6151261;23;20013;-81
2023/05/19 09:49:28;;;;;;;0.00;0.00;;;;;;;28.71;35.61;101431.44;6149727;23;20337;-82
2023/05/19 09:52:08;;;;;;;;;;;;;;;;;;;;;
2023/05/19 09:54:39;;;;;;;0.00;0.00;;;;;;;34.94;27.56;101442.88;6153836;23;20089;-80
2023/05/19 09:57:09;;;;;;;0.00;0.00;;;;;;;37.55;24.49;101457.44;6143046;23;20001;-78
2023/05/19 09:59:37;;;;;;;0.00;0.00;;;;;;;39.10;21.18;101431.94;6253041;22;20033;-80
2023/05/19 10:02:03;;;;;;;0.00;0.00;;;;;;;40.13;21.18;101421.47;6150372;23;20005;-82
2023/05/19 10:04:29;;;;;;;0.00;0.00;;;;;;;41.97;20.14;101447.72;6153814;23;20416;-81
2023/05/19 10:07:04;;;;;;;0.00;0.00;;;;;;;42.95;18.63;101429.91;6129548;23;20020;-82
2023/05/19 10:09:37;;;;;;;0.00;0.00;;;;;;;43.67;17.37;101432.91;6155953;23;20067;-81
2023/05/19 10:12:14;;;;;;;;;;;;;;;44.99;17.25;101433.41;6134110;23;20014;-81
2023/05/19 10:14:42;;;;;;;0.00;0.00;;;;;;;46.42;16.04;101421.81;6160499;23;19905;-81
2023/05/19 10:17:38;;;;;;;0.00;0.00;;;;;;;47.28;14.96;101428.69;6281873;22;20016;-81
2023/05/19 10:20:10;;;;;;;0.00;0.00;;;;;;;47.98;14.49;101411.88;6145317;23;20009;-79
2023/05/19 10:23:06;;;;;;;;;;;;;;;;;;;;;
2023/05/19 10:25:36;;;;;;;0.00;0.00;;;;;;;46.51;14.00;101410.97;6266861;22;20092;-81
2023/05/19 10:28:12;;;;;;;0.00;0.00;;;;;;;43.98;15.58;101417.66;6143763;23;20089;-80
2023/05/19 10:30:50;;;;;;;0.00;0.00;;;;;;;41.68;16.54;101414.16;6147732;23;20013;-81
2023/05/19 10:33:18;;;;;;;0.00;0.00;;;;;;;39.36;18.79;101420.00;6144227;23;20006;-82
2023/05/19 10:36:12;;;;;;;0.00;0.00;;;;;;;37.48;20.30;101422.50;6145173;23;19999;-80
2023/05/19 10:38:57;;;;;;;;;;;;;;;37.16;21.08;101427.38;6146604;23;20009;-80
2023/05/19 10:41:58;;;;;;;0.00;0.00;;;;;;;37.29;21.29;101410.53;6146426;23;19913;-81
2023/05/19 10:44:37;;;;;;;0.00;0.00;;;;;;;37.40;20.62;101401.84;6151816;23;20311;-84
2023/05/19 10:47:06;;;;;;;0.00;0.00;;;;;;;37.23;21.34;101394.31;6141228;23;20017;-80
2023/05/19 10:49:44;;;;;;;0.00;0.00;;;;;;;39.54;20.22;101411.00;6148766;23;20001;-81
2023/05/19 10:52:27;;;;;;;0.00;0.00;;;;;;;43.50;17.16;101394.94;6148224;23;20005;-81
2023/05/19 10:54:53;;;;;;;0.00;0.00;;;;;;;46.83;15.05;101393.16;6148738;23;19997;-81
2023/05/19 10:57:25;;;;;;;0.00;0.00;;;;;;;48.84;12.71;101408.69;6144005;23;20005;-80
2023/05/19 10:59:51;;;;;;;0.00;0.00;;;;;;;50.52;12.65;101397.81;6147973;23;20009;-83
2023/05/19 11:02:37;;;;;;;0.00;0.00;;;;;;;51.26;10.86;101387.00;6143937;23;20321;-84
2023/05/19 11:05:21;;;;;;;0.00;0.00;;;;;;;51.23;9.87;101383.03;6144628;23;20005;-83
2023/05/19 11:08:07;;;;;;;0.00;0.00;;;;;;;51.57;10.95;101376.38;6142181;23;20037;-83
2023/05/19 11:10:33;;;;;;;0.00;0.00;;;;;;;52.81;9.98;101384.50;6142071;23;20323;-81
2023/05/19 11:13:03;;;;;;;0.00;0.00;;;;;;;53.38;9.77;101366.47;6143327;23;20009;-82
2023/05/19 11:15:41;;;;;;;0.00;0.00;;;;;;;53.80;9.61;101352.44;6146109;23;19993;-78
2023/05/19 11:18:09;;;;;;;0.00;0.00;;;;;;;54.74;9.88;101364.63;6143334;23;20084;-80
2023/05/19 11:20:41;;;;;;;0.00;0.00;;;;;;;55.55;8.47;101375.09;6144404;23;20008;-79
2023/05/19 11:23:07;;;;;;;0.00;0.00;;;;;;;55.18;8.67;101353.44;6141278;23;20039;-81
2023/05/19 11:25:46;;;;;;;0.00;0.00;;;;;;;55.77;8.47;101355.47;6146256;23;20067;-81
2023/05/19 11:28:16;;;;;;;0.00;0.00;;;;;;;56.25;7.71;101329.84;6149922;23;20006;-82
2023/05/19 11:30:54;;;;;;;0.00;0.00;;;;;;;56.88;7.95;101355.50;6148532;23;20093;-85
2023/05/19 11:33:25;;;;;;;0.00;0.00;;;;;;;55.87;7.50;101341.91;6145020;23;20448;-85
2023/05/19 11:35:53;;;;;;;0.00;0.00;;;;;;;54.36;8.25;101332.53;6125888;23;20096;-82
2023/05/19 11:38:22;;;;;;;0.00;0.00;;;;;;;52.83;8.99;101332.19;6141733;23;20135;-76
2023/05/19 11:40:51;;;;;;;0.00;0.00;;;;;;;51.21;9.67;101336.19;6143805;23;20021;-77
2023/05/19 11:43:21;;;;;;;0.00;0.00;;;;;;;47.76;11.31;101311.75;6146079;23;20087;-76
2023/05/19 11:45:50;;;;;;;0.00;0.00;;;;;;;46.00;11.98;101305.09;6142033;23;20047;-77
2023/05/19 11:55:08;;;;;;;0.00;0.00;;;;;;;39.48;17.02;101301.22;6148590;23;20052;-76
2023/05/19 11:57:43;;;;;;;;;;;;;;;;;;;;;
2023/05/19 12:00:20;;;;;;;0.00;0.00;;;;;;;37.57;18.25;101285.06;6147897;23;20076;-77
2023/05/19 12:02:45;;;;;;;0.00;0.00;;;;;;;35.35;19.85;101272.97;6145671;23;20001;-77
2023/05/19 12:05:28;;;;;;;0.00;0.00;;;;;;;33.53;21.28;101269.03;6146726;23;20010;-77
2023/05/19 12:07:54;;;;;;;0.00;0.00;;;;;;;32.07;23.18;101265.25;6144942;23;20001;-76
2023/05/19 12:10:25;;;;;;;0.00;0.00;;;;;;;31.81;23.96;101274.75;6149931;23;20134;-76
2023/05/19 12:12:53;;;;;;;0.00;0.00;;;;;;;32.54;23.93;101294.63;6148307;23;20016;-77
2023/05/19 12:15:22;;;;;;;0.00;0.00;;;;;;;32.91;23.50;101286.31;6144365;23;20008;-78
2023/05/19 12:17:58;;;;;;;0.00;0.00;;;;;;;33.75;23.08;101303.09;6145470;22;20498;-77
2023/05/19 12:20:30;;;;;;;0.00;0.00;;;;;;;35.34;21.73;101279.88;6146175;23;20017;-77
2023/05/19 12:22:56;;;;;;;0.00;0.00;;;;;;;35.00;21.59;101294.69;6143008;23;20084;-76
2023/05/19 12:25:29;;;;;;;0.00;0.00;;;;;;;34.44;21.99;101281.91;6145456;23;20442;-76
2023/05/19 12:28:01;;;;;;;0.00;0.00;;;;;;;34.67;22.48;101274.13;6143100;23;20738;-77